createdAt,value
2019-04-29T00:00:30.162Z,14.77
2019-04-29T00:03:07.279Z,16.80
2019-04-29T00:05:44.467Z,17.73
2019-04-29T00:08:21.497Z,15.77
2019-04-29T00:10:58.550Z,14.53
2019-04-29T00:13:35.604Z,15.33
2019-04-29T00:16:20.278Z,14.67
2019-04-29T00:19:01.990Z,14.33
2019-04-29T00:21:45.983Z,19.67
2019-04-29T00:27:39.792Z,17.00
2019-04-29T00:30:26.350Z,13.97
2019-04-29T00:33:06.286Z,12.60
2019-04-29T00:35:43.389Z,16.43
2019-04-29T00:38:28.220Z,15.73
2019-04-29T00:41:18.914Z,14.37
2019-04-29T00:44:00.423Z,14.27
2019-04-29T00:46:37.474Z,14.33
2019-04-29T00:49:14.539Z,14.23
2019-04-29T00:51:51.605Z,14.77
2019-04-29T00:54:30.370Z,16.27
2019-04-29T00:57:07.350Z,13.63
2019-04-29T00:59:44.466Z,16.77
2019-04-29T01:02:21.599Z,17.33
2019-04-29T01:04:58.766Z,14.83
2019-04-29T01:07:35.801Z,20.63
2019-04-29T01:10:12.942Z,20.70
2019-04-29T01:12:50.021Z,17.97
2019-04-29T01:15:27.123Z,19.37
2019-04-29T01:18:05.219Z,20.67
2019-04-29T01:20:42.371Z,20.17
2019-04-29T01:23:19.414Z,19.40
2019-04-29T01:26:01.281Z,20.23
2019-04-29T01:28:44.085Z,18.60
2019-04-29T01:31:23.420Z,19.20
2019-04-29T01:34:04.070Z,15.80
2019-04-29T01:36:43.680Z,18.40
2019-04-29T01:39:22.148Z,21.00
2019-04-29T01:42:01.474Z,17.53
2019-04-29T01:44:38.956Z,17.87
2019-04-29T01:47:16.161Z,16.93
2019-04-29T01:49:53.171Z,20.10
2019-04-29T01:52:30.346Z,18.13
2019-04-29T01:55:07.364Z,20.60
2019-04-29T01:57:44.442Z,18.23
2019-04-29T02:00:21.405Z,22.03
2019-04-29T02:02:58.535Z,20.97
2019-04-29T02:05:35.546Z,28.43
2019-04-29T02:08:12.689Z,22.10
2019-04-29T02:10:49.678Z,20.47
2019-04-29T02:13:26.818Z,23.57
2019-04-29T02:16:03.798Z,23.07
2019-04-29T02:18:40.888Z,22.43
2019-04-29T02:21:18.014Z,23.43
2019-04-29T02:24:02.355Z,23.33
2019-04-29T02:26:39.539Z,30.87
2019-04-29T02:29:18.037Z,27.17
2019-04-29T02:32:01.205Z,23.97
2019-04-29T02:34:46.649Z,23.73
2019-04-29T02:37:27.335Z,28.43
2019-04-29T02:40:12.145Z,28.63
2019-04-29T02:42:51.607Z,30.30
2019-04-29T02:45:30.313Z,28.77
2019-04-29T02:48:07.406Z,32.87
2019-04-29T02:50:44.485Z,26.13
2019-04-29T02:53:21.531Z,28.43
2019-04-29T02:56:00.380Z,28.83
2019-04-29T02:58:41.440Z,30.40
2019-04-29T03:01:26.039Z,25.10
2019-04-29T03:04:04.663Z,27.93
2019-04-29T03:06:41.793Z,27.80
2019-04-29T03:09:18.796Z,26.33
2019-04-29T03:11:55.836Z,29.23
2019-04-29T03:14:32.832Z,29.83
2019-04-29T03:17:09.939Z,33.90
2019-04-29T03:20:05.362Z,36.13
2019-04-29T03:22:44.113Z,38.07
2019-04-29T03:25:21.089Z,37.87
2019-04-29T03:27:58.210Z,32.50
2019-04-29T03:30:35.182Z,34.50
2019-04-29T03:33:12.326Z,36.80
2019-04-29T03:35:49.404Z,38.50
2019-04-29T03:38:33.881Z,35.17
2019-04-29T03:41:26.963Z,36.93
2019-04-29T03:44:09.064Z,33.47
2019-04-29T03:46:50.282Z,37.60
2019-04-29T03:49:28.316Z,43.10
2019-04-29T03:52:09.175Z,29.53
2019-04-29T03:54:46.284Z,34.23
2019-04-29T03:57:23.313Z,32.13
2019-04-29T04:00:00.375Z,39.80
2019-04-29T04:02:43.371Z,29.23
2019-04-29T04:05:33.558Z,32.17
2019-04-29T04:08:24.549Z,33.07
2019-04-29T04:11:01.687Z,29.80
2019-04-29T04:13:38.655Z,28.60
2019-04-29T04:16:20.274Z,26.40
2019-04-29T04:19:07.790Z,32.27
2019-04-29T04:21:44.939Z,33.30
2019-04-29T04:24:21.979Z,29.70
2019-04-29T04:26:59.047Z,27.50
2019-04-29T04:29:36.087Z,34.00
2019-04-29T04:32:13.214Z,34.10
2019-04-29T04:34:50.207Z,31.63
2019-04-29T04:37:27.262Z,26.53
2019-04-29T04:40:06.436Z,33.53
2019-04-29T04:42:43.500Z,23.30
2019-04-29T04:45:20.549Z,29.13
2019-04-29T04:47:57.603Z,21.40
2019-04-29T04:50:34.671Z,23.27
2019-04-29T04:53:11.713Z,23.90
2019-04-29T04:55:55.447Z,23.30
2019-04-29T04:58:32.491Z,22.03
2019-04-29T05:01:09.486Z,25.27
2019-04-29T05:03:46.538Z,22.23
2019-04-29T05:06:23.576Z,32.40
2019-04-29T05:09:00.632Z,25.33
2019-04-29T05:11:37.790Z,29.27
2019-04-29T05:14:14.781Z,33.80
2019-04-29T05:16:51.871Z,36.13
2019-04-29T05:19:28.948Z,45.93
2019-04-29T05:22:06.404Z,39.77
2019-04-29T05:24:43.647Z,39.50
2019-04-29T05:27:20.726Z,27.13
2019-04-29T05:29:57.786Z,24.37
2019-04-29T05:32:34.770Z,27.70
2019-04-29T05:35:13.547Z,27.87
2019-04-29T05:38:04.040Z,21.90
2019-04-29T05:40:45.438Z,21.80
2019-04-29T05:43:27.240Z,17.33
2019-04-29T05:46:07.224Z,19.30
2019-04-29T05:48:43.659Z,23.93
2019-04-29T05:51:34.490Z,18.47
2019-04-29T05:54:14.783Z,16.80
2019-04-29T05:56:51.925Z,14.33
2019-04-29T05:59:28.890Z,14.23
2019-04-29T06:02:05.998Z,16.60
2019-04-29T06:04:43.165Z,16.17
2019-04-29T06:07:26.766Z,16.17
2019-04-29T06:10:02.761Z,18.53
2019-04-29T06:12:39.808Z,15.07
2019-04-29T06:15:16.810Z,19.37
2019-04-29T06:17:53.879Z,15.73
2019-04-29T06:20:30.901Z,19.40
2019-04-29T06:23:07.961Z,18.37
2019-04-29T06:25:45.066Z,16.13
2019-04-29T06:28:26.371Z,19.47
2019-04-29T06:31:03.228Z,22.43
2019-04-29T06:33:40.475Z,21.67
2019-04-29T06:36:24.947Z,19.20
2019-04-29T06:39:02.001Z,22.33
2019-04-29T06:41:40.602Z,19.03
2019-04-29T06:44:21.294Z,16.80
2019-04-29T06:47:07.082Z,15.87
2019-04-29T06:49:44.221Z,19.20
2019-04-29T06:52:21.203Z,15.90
2019-04-29T06:55:00.004Z,13.97
2019-04-29T06:57:37.092Z,18.87
2019-04-29T07:00:17.694Z,20.73
2019-04-29T07:02:52.806Z,14.87
2019-04-29T07:05:29.927Z,16.67
2019-04-29T07:08:06.933Z,17.83
2019-04-29T07:10:44.031Z,14.10
2019-04-29T07:13:28.974Z,13.70
2019-04-29T07:16:09.464Z,16.40
2019-04-29T07:18:51.242Z,14.83
2019-04-29T07:21:25.195Z,16.43
2019-04-29T07:24:02.907Z,14.37
2019-04-29T07:26:39.988Z,17.07
2019-04-29T07:29:17.208Z,20.73
2019-04-29T07:31:54.757Z,16.53
2019-04-29T07:34:33.877Z,17.33
2019-04-29T07:37:10.406Z,19.77
2019-04-29T07:39:47.448Z,15.50
2019-04-29T07:42:31.920Z,16.10
2019-04-29T07:45:23.708Z,16.83
2019-04-29T07:48:06.159Z,22.93
2019-04-29T07:50:40.350Z,16.43
2019-04-29T07:53:21.823Z,20.83
2019-04-29T07:55:56.038Z,18.10
2019-04-29T07:58:33.145Z,19.33
2019-04-29T08:01:10.125Z,18.13
2019-04-29T08:03:47.194Z,26.50
2019-04-29T08:06:24.249Z,20.23
2019-04-29T08:09:07.082Z,18.87
2019-04-29T08:11:40.762Z,16.97
2019-04-29T08:14:19.466Z,21.53
2019-04-29T08:16:56.515Z,19.40
2019-04-29T08:19:33.532Z,21.83
2019-04-29T08:22:10.598Z,11.23
2019-04-29T08:24:50.490Z,21.20
2019-04-29T08:27:38.938Z,20.30
2019-04-29T08:30:11.364Z,21.60
2019-04-29T08:32:46.478Z,15.77
2019-04-29T08:35:23.513Z,21.60
2019-04-29T08:38:00.555Z,18.60
2019-04-29T08:40:37.640Z,23.10
2019-04-29T08:43:23.150Z,23.73
2019-04-29T08:46:02.197Z,23.17
2019-04-29T08:48:41.113Z,21.37
2019-04-29T08:51:18.213Z,24.47
2019-04-29T08:53:55.202Z,21.37
2019-04-29T08:56:32.286Z,18.47
2019-04-29T08:59:09.286Z,17.97
2019-04-29T09:01:46.373Z,18.83
2019-04-29T09:04:23.366Z,22.50
2019-04-29T09:07:12.037Z,23.47
2019-04-29T09:09:39.050Z,24.03
2019-04-29T09:12:19.292Z,21.30
2019-04-29T09:14:56.829Z,21.37
2019-04-29T09:17:36.741Z,24.17
2019-04-29T09:20:15.390Z,25.30
2019-04-29T09:22:57.031Z,22.77
2019-04-29T09:25:39.139Z,22.03
2019-04-29T09:28:22.459Z,23.37
2019-04-29T09:30:56.644Z,18.97
2019-04-29T09:33:35.086Z,25.70
2019-04-29T09:36:15.077Z,21.07
2019-04-29T09:38:52.126Z,20.70
2019-04-29T09:41:35.067Z,25.30
2019-04-29T09:44:16.829Z,26.50
2019-04-29T09:46:55.571Z,22.77
2019-04-29T09:49:34.204Z,26.20
2019-04-29T09:52:11.251Z,24.13
2019-04-29T09:54:48.302Z,26.67
2019-04-29T09:57:25.348Z,27.63
2019-04-29T10:00:05.334Z,32.90
2019-04-29T10:02:50.290Z,33.13
2019-04-29T10:05:35.278Z,31.33
2019-04-29T10:08:12.369Z,42.40
2019-04-29T10:10:51.175Z,59.40
2019-04-29T10:13:29.726Z,45.07
2019-04-29T10:16:08.355Z,48.40
2019-04-29T10:18:53.046Z,67.70
2019-04-29T10:21:30.041Z,70.07
2019-04-29T10:24:14.447Z,81.17
2019-04-29T10:26:50.059Z,72.33
2019-04-29T10:29:28.759Z,69.27
2019-04-29T10:32:08.597Z,64.20
2019-04-29T10:34:45.718Z,57.50
2019-04-29T10:37:23.824Z,65.10
2019-04-29T10:40:15.666Z,72.57
2019-04-29T10:42:55.598Z,61.03
2019-04-29T10:45:50.919Z,66.37
2019-04-29T10:48:35.549Z,60.43
2019-04-29T10:51:14.234Z,57.10
2019-04-29T10:53:52.642Z,63.07
2019-04-29T10:56:35.312Z,71.97
2019-04-29T10:59:12.684Z,72.80
2019-04-29T11:02:02.553Z,64.97
2019-04-29T11:04:39.398Z,65.83
2019-04-29T11:07:35.963Z,65.70
2019-04-29T11:10:25.374Z,64.60
2019-04-29T11:13:00.991Z,68.80
2019-04-29T11:15:38.024Z,65.30
2019-04-29T11:18:18.085Z,61.90
2019-04-29T11:20:55.505Z,67.67
2019-04-29T11:23:43.255Z,68.57
2019-04-29T11:26:24.826Z,64.03
2019-04-29T11:29:05.293Z,71.60
2019-04-29T11:31:40.653Z,68.33
2019-04-29T11:34:19.598Z,77.10
2019-04-29T11:36:56.609Z,80.57
2019-04-29T11:39:33.631Z,76.23
2019-04-29T11:42:10.663Z,77.97
2019-04-29T11:44:51.081Z,73.87
2019-04-29T11:47:28.206Z,77.47
2019-04-29T11:50:16.025Z,84.63
2019-04-29T11:52:55.561Z,81.30
2019-04-29T11:55:31.729Z,82.17
2019-04-29T11:58:19.646Z,80.17
2019-04-29T12:00:58.194Z,97.47
2019-04-29T12:03:39.870Z,93.03
2019-04-29T12:06:20.848Z,109.03
2019-04-29T12:08:58.492Z,116.27
2019-04-29T12:11:36.310Z,106.33
2019-04-29T12:14:21.622Z,106.33
2019-04-29T12:17:05.989Z,105.13
2019-04-29T12:19:44.672Z,107.83
2019-04-29T12:22:30.396Z,127.00
2019-04-29T12:25:00.352Z,102.47
2019-04-29T12:27:37.423Z,113.07
2019-04-29T12:30:16.145Z,103.73
2019-04-29T12:33:01.357Z,92.93
2019-04-29T12:35:50.711Z,103.80
2019-04-29T12:38:20.702Z,103.90
2019-04-29T12:41:20.167Z,116.07
2019-04-29T12:44:00.355Z,98.90
2019-04-29T12:46:48.237Z,96.60
2019-04-29T12:49:25.642Z,101.53
2019-04-29T12:52:05.523Z,100.03
2019-04-29T12:54:46.104Z,104.57
2019-04-29T12:57:23.424Z,100.17
2019-04-29T13:00:00.027Z,103.80
2019-04-29T13:02:41.662Z,95.73
2019-04-29T13:05:36.938Z,99.70
2019-04-29T13:08:15.646Z,84.60
2019-04-29T13:11:00.096Z,85.43
2019-04-29T13:13:37.115Z,92.70
2019-04-29T13:16:22.040Z,107.67
2019-04-29T13:19:14.492Z,102.83
2019-04-29T13:21:48.743Z,102.30
2019-04-29T13:24:26.014Z,101.00
2019-04-29T13:27:15.717Z,104.87
2019-04-29T13:29:41.923Z,91.80
2019-04-29T13:32:18.982Z,103.53
2019-04-29T13:35:00.224Z,98.03
2019-04-29T13:37:36.501Z,96.77
2019-04-29T13:40:13.526Z,102.07
2019-04-29T13:42:52.305Z,109.73
2019-04-29T13:45:49.418Z,113.50
2019-04-29T13:48:53.892Z,98.27
2019-04-29T13:51:36.015Z,100.70
2019-04-29T13:54:08.214Z,105.40
2019-04-29T13:56:55.633Z,98.00
2019-04-29T13:59:28.282Z,99.03
2019-04-29T14:02:28.646Z,98.80
2019-04-29T14:05:02.396Z,97.37
2019-04-29T14:07:39.834Z,99.13
2019-04-29T14:10:17.069Z,116.60
2019-04-29T14:13:09.137Z,102.03
2019-04-29T14:15:33.820Z,109.00
2019-04-29T14:18:12.135Z,108.33
2019-04-29T14:20:56.558Z,94.60
2019-04-29T14:23:47.477Z,102.93
2019-04-29T14:26:24.729Z,97.10
2019-04-29T14:29:02.129Z,95.47
2019-04-29T14:31:41.531Z,90.27
2019-04-29T14:34:25.954Z,100.73
2019-04-29T14:37:19.613Z,93.27
2019-04-29T14:39:41.766Z,85.03
2019-04-29T14:42:25.683Z,86.10
2019-04-29T14:45:03.757Z,86.47
2019-04-29T14:47:48.257Z,93.33
2019-04-29T14:50:25.348Z,89.63
2019-04-29T14:53:02.364Z,96.10
2019-04-29T14:55:39.414Z,107.97
2019-04-29T14:58:16.418Z,95.17
2019-04-29T15:00:55.157Z,92.03
2019-04-29T15:03:33.898Z,93.27
2019-04-29T15:06:11.365Z,100.33
2019-04-29T15:08:48.371Z,94.13
2019-04-29T15:11:32.083Z,92.10
2019-04-29T15:14:25.361Z,96.80
2019-04-29T15:17:13.040Z,99.70
2019-04-29T15:19:57.967Z,102.60
2019-04-29T15:22:36.858Z,101.83
2019-04-29T15:25:16.809Z,101.07
2019-04-29T15:27:52.542Z,96.00
2019-04-29T15:30:31.695Z,100.10
2019-04-29T15:33:08.207Z,100.63
2019-04-29T15:35:45.303Z,105.37
2019-04-29T15:38:22.468Z,96.90
2019-04-29T15:40:59.419Z,93.37
2019-04-29T15:43:47.521Z,94.93
2019-04-29T15:46:23.566Z,96.73
2019-04-29T15:49:00.653Z,96.57
2019-04-29T15:51:44.166Z,98.17
2019-04-29T15:54:18.714Z,92.90
2019-04-29T15:56:56.021Z,90.00
2019-04-29T15:59:47.955Z,91.67
2019-04-29T16:02:11.747Z,86.00
2019-04-29T16:04:53.420Z,93.60
2019-04-29T16:07:36.622Z,82.03
2019-04-29T16:10:20.586Z,91.30
2019-04-29T16:12:58.586Z,91.07
2019-04-29T16:15:36.308Z,86.20
2019-04-29T16:18:14.756Z,82.30
2019-04-29T16:20:54.130Z,79.23
2019-04-29T16:23:38.513Z,84.00
2019-04-29T16:26:15.109Z,79.57
2019-04-29T16:28:52.414Z,82.50
2019-04-29T16:31:29.474Z,80.73
2019-04-29T16:34:08.046Z,81.07
2019-04-29T16:36:50.011Z,79.43
2019-04-29T16:39:23.787Z,78.23
2019-04-29T16:42:11.608Z,81.67
2019-04-29T16:44:48.603Z,74.33
2019-04-29T16:47:29.171Z,79.30
2019-04-29T16:50:06.254Z,76.30
2019-04-29T16:52:44.566Z,80.90
2019-04-29T16:55:21.738Z,83.97
2019-04-29T17:02:02.243Z,86.27
2019-04-29T17:04:39.351Z,84.60
2019-04-29T17:07:17.882Z,76.00
2019-04-29T17:09:59.912Z,75.33
2019-04-29T17:12:38.622Z,92.63
2019-04-29T17:15:24.718Z,89.20
2019-04-29T17:17:54.934Z,87.53
2019-04-29T17:20:31.990Z,78.93
2019-04-29T17:23:09.020Z,75.37
2019-04-29T17:25:46.141Z,68.30
2019-04-29T17:28:29.027Z,75.83
2019-04-29T17:31:12.177Z,79.10
2019-04-29T17:33:50.509Z,75.47
2019-04-29T17:36:27.836Z,81.90
2019-04-29T17:39:06.864Z,68.30
2019-04-29T17:41:43.874Z,65.10
2019-04-29T17:44:28.583Z,81.43
2019-04-29T17:47:13.354Z,82.33
2019-04-29T17:49:52.222Z,61.83
2019-04-29T17:52:35.221Z,71.07
2019-04-29T17:55:37.205Z,59.57
2019-04-29T17:58:06.363Z,54.93
2019-04-29T18:00:55.665Z,55.43
2019-04-29T18:03:28.428Z,55.53
2019-04-29T18:06:10.063Z,66.07
2019-04-29T18:08:51.956Z,65.70
2019-04-29T18:11:29.078Z,67.13
2019-04-29T18:14:07.132Z,69.87
2019-04-29T18:16:47.845Z,76.80
2019-04-29T18:19:25.846Z,77.63
2019-04-29T18:22:07.190Z,81.33
2019-04-29T18:24:55.483Z,76.27
2019-04-29T18:27:36.726Z,92.00
2019-04-29T18:30:33.252Z,92.67
2019-04-29T18:32:59.823Z,105.07
2019-04-29T18:35:36.794Z,113.40
2019-04-29T18:38:13.888Z,119.23
2019-04-29T18:40:50.938Z,113.20
2019-04-29T18:43:28.730Z,136.53
2019-04-29T18:46:12.404Z,164.03
2019-04-29T18:48:45.871Z,171.23
2019-04-29T18:51:27.400Z,144.70
2019-04-29T18:54:06.207Z,138.13
2019-04-29T18:56:45.623Z,131.27
2019-04-29T18:59:30.499Z,100.53
2019-04-29T19:02:07.868Z,114.40
2019-04-29T19:04:41.784Z,104.67
2019-04-29T19:07:31.859Z,92.53
2019-04-29T19:14:29.831Z,90.20
2019-04-29T19:17:23.513Z,90.97
2019-04-29T19:20:18.706Z,97.03
2019-04-29T19:23:05.800Z,103.37
2019-04-29T19:25:36.499Z,100.33
2019-04-29T19:28:29.411Z,114.83
2019-04-29T19:31:03.024Z,96.07
2019-04-29T19:33:38.975Z,98.20
2019-04-29T19:36:20.178Z,97.73
2019-04-29T19:38:52.734Z,104.33
2019-04-29T19:41:31.062Z,105.33
2019-04-29T19:44:15.518Z,100.47
2019-04-29T19:46:58.994Z,106.33
2019-04-29T19:49:40.243Z,96.20
2019-04-29T19:52:30.433Z,101.87
2019-04-29T19:55:01.702Z,85.13
2019-04-29T19:57:48.207Z,93.80
2019-04-29T20:00:29.441Z,94.37
2019-04-29T20:03:18.344Z,96.33
2019-04-29T20:05:46.446Z,103.40
2019-04-29T20:08:48.337Z,106.50
2019-04-29T20:11:14.618Z,99.73
2019-04-29T20:14:01.279Z,110.60
2019-04-29T20:16:42.807Z,115.47
2019-04-29T20:19:30.313Z,106.17
2019-04-29T20:22:15.993Z,106.00
2019-04-29T20:24:55.477Z,122.37
2019-04-29T20:27:32.591Z,135.30
2019-04-29T20:30:20.798Z,116.83
2019-04-29T20:32:56.549Z,124.53
2019-04-29T20:35:35.603Z,118.07
2019-04-29T20:38:12.641Z,120.50
2019-04-29T20:40:49.870Z,140.20
2019-04-29T20:43:29.556Z,128.10
2019-04-29T20:46:05.606Z,117.17
2019-04-29T20:48:45.562Z,127.60
2019-04-29T20:51:28.488Z,128.27
2019-04-29T20:54:15.990Z,121.30
2019-04-29T20:57:04.752Z,141.33
2019-04-29T20:59:42.025Z,139.83
2019-04-29T21:02:31.404Z,147.07
2019-04-29T21:05:03.300Z,187.00
2019-04-29T21:10:58.860Z,143.50
2019-04-29T21:13:41.236Z,145.70
2019-04-29T21:16:29.154Z,129.13
2019-04-29T21:19:08.515Z,138.23
2019-04-29T21:21:55.078Z,134.10
2019-04-29T21:24:26.501Z,136.90
2019-04-29T21:27:05.437Z,130.83
2019-04-29T21:29:42.171Z,133.50
2019-04-29T21:32:19.182Z,133.70
2019-04-29T21:35:05.747Z,137.33
2019-04-29T21:37:47.902Z,138.87
2019-04-29T21:40:26.489Z,168.70
2019-04-29T21:43:13.435Z,158.47
2019-04-29T21:45:50.501Z,176.63
2019-04-29T21:48:33.433Z,165.20
2019-04-29T21:51:06.871Z,157.87
2019-04-29T21:53:45.896Z,160.23
2019-04-29T21:56:23.010Z,185.87
2019-04-29T21:59:02.597Z,170.57
2019-04-29T22:07:12.359Z,160.48
2019-04-29T22:09:56.830Z,156.67
2019-04-29T22:12:50.880Z,154.20
2019-04-29T22:15:39.007Z,152.67
2019-04-29T22:21:35.875Z,161.77
2019-04-29T22:24:30.295Z,174.07
2019-04-29T22:27:19.694Z,192.43
2019-04-29T22:29:59.301Z,186.33
2019-04-29T22:32:51.764Z,212.70
2019-04-29T22:35:37.188Z,182.30
2019-04-29T22:38:18.275Z,208.03
2019-04-29T22:40:58.795Z,209.87
2019-04-29T22:43:54.660Z,201.13
2019-04-29T22:46:51.824Z,230.77
2019-04-29T22:49:30.827Z,195.47
2019-04-29T22:52:13.373Z,208.97
2019-04-29T22:54:57.893Z,212.27
2019-04-29T22:57:36.026Z,189.10
2019-04-29T23:00:17.696Z,232.07
2019-04-29T23:03:02.351Z,247.17
2019-04-29T23:05:46.210Z,231.10
2019-04-29T23:08:25.164Z,247.43
2019-04-29T23:11:05.353Z,234.47
2019-04-29T23:14:01.612Z,277.40
2019-04-29T23:16:56.346Z,278.00
2019-04-29T23:19:58.203Z,292.63
2019-04-29T23:22:57.923Z,298.17
2019-04-29T23:25:55.519Z,294.17
2019-04-29T23:28:39.427Z,313.13
2019-04-29T23:31:30.584Z,283.80
2019-04-29T23:34:27.809Z,301.83
2019-04-29T23:37:07.154Z,276.37
2019-04-29T23:39:50.840Z,300.57
2019-04-29T23:42:30.939Z,290.13
2019-04-29T23:45:14.558Z,231.30
2019-04-29T23:47:50.409Z,223.83
2019-04-29T23:50:30.529Z,216.33
2019-04-29T23:53:11.197Z,221.07
2019-04-29T23:55:52.451Z,201.73
2019-04-29T23:58:38.706Z,199.17
